Time;durP1;ratioP1;P1;durP2;ratioP2;P2;SDS_P1;SDS_P2;PMS_P1;PMS_P2;Temp;Humidity;BMP_temperature;BMP_pressure;BME280_temperature;BME280_humidity;BME280_pressure;Samples;Min_cycle;Max_cycle;Signal;HPM_P1;HPM_P2
2022/11/22 00:00:31;;;;;;;13.40;11.90;;;;;;;1.36;92.01;98590.81;5011111;28;20226;-73
2022/11/22 00:02:59;;;;;;;13.23;11.80;;;;;;;1.36;91.96;98579.69;5011795;28;20211;-74
2022/11/22 00:05:26;;;;;;;15.90;12.93;;;;;;;1.35;92.27;98578.00;5011516;28;20229;-71
2022/11/22 00:07:52;;;;;;;14.43;12.47;;;;;;;1.38;92.00;98573.66;5011491;28;20224;-72
2022/11/22 00:10:20;;;;;;;13.93;12.33;;;;;;;1.38;91.85;98572.81;5011255;28;20251;-73
2022/11/22 00:12:47;;;;;;;14.40;12.37;;;;;;;1.38;92.20;98573.66;5011409;28;20692;-74
2022/11/22 00:15:13;;;;;;;17.10;13.43;;;;;;;1.26;nan;98572.97;5011603;28;20228;-73
2022/11/22 00:17:40;;;;;;;19.63;14.03;;;;;;;1.33;92.63;98556.59;5011619;28;20223;-72
2022/11/22 00:20:10;;;;;;;16.33;13.43;;;;;;;1.33;92.31;98559.19;5011060;28;20208;-73
2022/11/22 00:22:37;;;;;;;18.17;14.00;;;;;;;1.17;93.26;98549.06;5008961;28;20677;-74
2022/11/22 00:25:04;;;;;;;19.07;14.40;;;;;;;1.13;93.82;98526.84;5011488;28;20228;-74
2022/11/22 00:27:30;;;;;;;16.23;13.40;;;;;;;1.12;94.63;98511.44;5011449;28;20727;-74
2022/11/22 00:29:57;;;;;;;18.77;13.50;;;;;;;1.11;94.65;98494.31;5011390;28;20601;-72
2022/11/22 00:32:23;;;;;;;17.03;13.27;;;;;;;1.16;94.82;98474.56;5011501;28;20207;-72
2022/11/22 00:34:50;;;;;;;20.80;13.97;;;;;;;1.22;94.72;98483.91;5011377;28;20914;-72
2022/11/22 00:37:18;;;;;;;18.47;14.57;;;;;;;1.23;94.52;98480.47;5009734;28;20237;-72
2022/11/22 00:39:44;;;;;;;17.87;13.50;;;;;;;1.28;94.22;98483.84;5015013;28;20206;-72
2022/11/22 00:42:10;;;;;;;18.63;13.50;;;;;;;1.30;94.53;98495.78;5014960;28;20579;-72
2022/11/22 00:44:37;;;;;;;18.40;14.17;;;;;;;1.32;94.15;98493.22;5014960;28;20223;-73
2022/11/22 00:47:03;;;;;;;18.70;14.37;;;;;;;1.37;93.84;98484.56;5014881;28;20227;-74
2022/11/22 00:49:30;;;;;;;18.10;13.57;;;;;;;1.32;93.77;98498.34;5014884;28;20212;-71
2022/11/22 00:51:56;;;;;;;20.63;14.03;;;;;;;1.31;94.35;98491.50;5014440;28;20296;-72
2022/11/22 00:54:24;;;;;;;20.30;13.83;;;;;;;1.35;93.54;98488.88;5014686;28;20199;-72
2022/11/22 00:56:51;;;;;;;21.63;14.87;;;;;;;1.28;93.61;98488.97;5014683;28;20234;-73
2022/11/22 00:59:17;;;;;;;26.80;15.07;;;;;;;1.24;94.69;98479.59;5014869;28;20202;-72
2022/11/22 01:01:44;;;;;;;21.70;15.37;;;;;;;1.26;94.40;98462.44;5014192;28;20203;-72
2022/11/22 01:04:10;;;;;;;24.97;14.70;;;;;;;1.33;95.09;98449.50;5014543;28;20271;-72
2022/11/22 01:06:37;;;;;;;22.90;16.17;;;;;;;1.38;94.12;98460.56;5014274;28;20223;-72
2022/11/22 01:09:03;;;;;;;25.80;15.80;;;;;;;1.46;94.35;98469.88;5014433;28;20207;-72
2022/11/22 01:11:31;;;;;;;24.47;16.17;;;;;;;1.47;93.12;98472.44;5014101;28;20698;-72
2022/11/22 01:13:57;;;;;;;26.77;15.50;;;;;;;1.46;93.36;98486.16;5009518;28;20200;-72
2022/11/22 01:16:24;;;;;;;27.03;16.37;;;;;;;1.44;93.82;98498.19;5014231;28;20219;-73
2022/11/22 01:18:50;;;;;;;22.87;15.27;;;;;;;1.42;93.58;98499.91;5014348;28;20588;-74
2022/11/22 01:21:17;;;;;;;21.73;15.90;;;;;;;1.46;93.13;98495.59;5013778;28;20200;-72
2022/11/22 01:23:43;;;;;;;23.73;14.83;;;;;;;1.50;92.99;98484.41;5014326;28;20206;-72
2022/11/22 01:26:10;;;;;;;27.03;16.40;;;;;;;1.46;93.14;98487.88;5014238;28;20227;-74
2022/11/22 01:28:38;;;;;;;27.90;17.23;;;;;;;1.49;92.96;98483.56;5011571;28;20198;-74
2022/11/22 01:31:04;;;;;;;26.90;16.07;;;;;;;1.45;93.50;98486.16;5013934;28;20565;-72
2022/11/22 01:33:31;;;;;;;27.50;17.10;;;;;;;1.52;93.78;98488.63;5013544;28;20213;-72
2022/11/22 01:35:58;;;;;;;28.50;17.03;;;;;;;1.55;92.89;98496.31;5013743;28;20703;-72
2022/11/22 01:38:24;;;;;;;32.93;16.67;;;;;;;1.53;93.48;98499.78;5014044;28;20287;-73
2022/11/22 01:40:51;;;;;;;29.07;16.70;;;;;;;1.54;92.76;98491.19;5013673;28;20203;-72
2022/11/22 01:43:19;;;;;;;29.40;18.17;;;;;;;1.58;92.65;98495.41;5013724;28;20203;-72
2022/11/22 01:45:50;;;;;;;28.80;17.13;;;;;;;1.57;93.28;98492.00;5013786;28;20222;-72
2022/11/22 01:48:46;;;;;;;30.93;17.60;;;;;;;1.55;93.22;98490.34;5011111;28;20206;-72
2022/11/22 01:51:20;;;;;;;30.53;16.20;;;;;;;1.55;93.41;98480.91;5013125;28;20196;-72
2022/11/22 01:53:47;;;;;;;29.30;16.57;;;;;;;1.60;93.20;98470.53;5013649;28;20203;-73
2022/11/22 01:56:16;;;;;;;25.77;17.90;;;;;;;1.59;93.14;98463.72;5013475;28;20219;-72
2022/11/22 01:58:47;;;;;;;28.70;17.03;;;;;;;1.62;nan;98467.94;5013665;28;20209;-73
2022/11/22 02:01:15;;;;;;;28.97;18.40;;;;;;;1.55;93.22;98467.19;5013483;28;20207;-73
2022/11/22 02:03:45;;;;;;;32.93;18.87;;;;;;;1.53;93.21;98474.91;5013227;28;20713;-73
2022/11/22 02:06:13;;;;;;;32.90;18.63;;;;;;;1.55;92.79;98475.75;5013338;28;20231;-73
2022/11/22 02:08:44;;;;;;;34.63;18.83;;;;;;;1.56;93.44;98469.72;5013178;28;20196;-73
2022/11/22 02:11:12;;;;;;;33.63;18.87;;;;;;;1.60;93.24;98470.53;5013195;28;20203;-73
2022/11/22 02:13:42;;;;;;;38.30;19.77;;;;;;;1.57;93.29;98468.88;5013418;28;20205;-73
2022/11/22 02:16:10;;;;;;;31.43;19.20;;;;;;;1.62;93.46;98462.81;5013331;28;20234;-72
2022/11/22 02:18:38;;;;;;;31.40;19.10;;;;;;;1.61;92.68;98461.97;5013060;28;20913;-74
2022/11/22 02:21:05;;;;;;;32.97;19.17;;;;;;;1.61;93.02;98458.53;5012929;28;20200;-73
2022/11/22 02:23:44;;;;;;;35.47;20.40;;;;;;;1.57;92.90;98461.16;5015619;28;20198;-73
2022/11/22 02:26:13;;;;;;;33.97;20.07;;;;;;;1.57;93.11;98455.16;5021865;28;20215;-73
2022/11/22 02:28:40;;;;;;;37.07;18.13;;;;;;;1.58;93.28;98449.97;5021914;28;20195;-73
2022/11/22 02:31:07;;;;;;;34.07;19.00;;;;;;;1.63;93.17;98443.94;5022976;28;20202;-73
2022/11/22 02:33:33;;;;;;;30.60;19.10;;;;;;;1.57;93.47;98452.59;5022767;28;20234;-73
2022/11/22 02:36:00;;;;;;;38.57;20.17;;;;;;;1.60;93.43;98442.25;5021647;28;20203;-73
2022/11/22 02:38:31;;;;;;;33.23;19.83;;;;;;;1.62;93.51;98442.22;5023210;28;20206;-73
2022/11/22 02:41:02;;;;;;;32.60;19.77;;;;;;;1.61;93.23;98458.53;5023450;28;20202;-73
2022/11/22 02:43:33;;;;;;;26.97;18.93;;;;;;;1.61;93.22;98450.84;5022615;28;20211;-73
2022/11/22 02:46:03;;;;;;;29.90;19.50;;;;;;;1.63;93.53;98447.34;5032671;28;20222;-73
2022/11/22 02:48:30;;;;;;;33.77;18.10;;;;;;;1.63;92.96;98439.63;5032879;28;20227;-75
2022/11/22 02:50:56;;;;;;;34.63;19.57;;;;;;;1.64;93.01;98436.19;5032687;28;20211;-75
2022/11/22 02:53:23;;;;;;;34.63;19.87;;;;;;;1.65;92.90;98432.75;5032777;28;20206;-75
2022/11/22 02:55:50;;;;;;;36.17;19.57;;;;;;;1.65;93.46;98429.34;5032675;28;20207;-75
2022/11/22 02:58:16;;;;;;;33.13;19.13;;;;;;;1.66;92.89;98436.16;5032231;28;20410;-75
2022/11/22 03:00:44;;;;;;;31.53;18.63;;;;;;;1.70;92.75;98432.66;5032301;28;20214;-75
2022/11/22 03:03:11;;;;;;;26.80;18.73;;;;;;;1.66;92.84;98446.44;5032652;28;20215;-75
2022/11/22 03:05:37;;;;;;;30.00;19.23;;;;;;;1.69;93.37;98443.84;5032588;28;20257;-75
2022/11/22 03:08:04;;;;;;;30.57;18.67;;;;;;;1.70;93.23;98441.22;5032504;28;20236;-75
2022/11/22 03:10:30;;;;;;;24.77;17.70;;;;;;;1.72;93.25;98444.63;5032235;28;20208;-75
2022/11/22 03:12:57;;;;;;;25.97;17.20;;;;;;;1.73;93.21;98450.63;5032329;28;20596;-75
2022/11/22 03:15:23;;;;;;;28.27;19.63;;;;;;;1.78;92.70;98453.97;5032269;28;20216;-75
2022/11/22 03:17:57;;;;;;;27.63;18.07;;;;;;;1.83;92.85;98441.91;5032417;28;20236;-75
2022/11/22 03:20:23;;;;;;;26.03;18.13;;;;;;;1.87;92.93;98428.13;5032118;28;20216;-75
2022/11/22 03:22:49;;;;;;;24.73;17.53;;;;;;;1.86;92.47;98431.53;5032285;28;20207;-75
2022/11/22 03:25:16;;;;;;;24.30;17.87;;;;;;;1.85;92.91;98439.31;5032178;28;20231;-75
2022/11/22 03:27:43;;;;;;;24.90;17.27;;;;;;;1.87;93.10;98438.41;5032001;28;20600;-75
2022/11/22 03:30:10;;;;;;;24.17;16.63;;;;;;;1.90;93.22;98430.66;5032089;28;20352;-75
2022/11/22 03:32:36;;;;;;;25.67;17.13;;;;;;;1.92;92.94;98428.91;5032188;28;20265;-75
2022/11/22 03:35:05;;;;;;;25.33;17.70;;;;;;;1.89;92.99;98428.94;5031709;28;20209;-75
2022/11/22 03:37:32;;;;;;;26.83;18.77;;;;;;;1.90;92.93;98437.50;5031972;28;20232;-75
2022/11/22 03:39:58;;;;;;;24.80;17.20;;;;;;;1.91;92.70;98434.91;5031700;28;20207;-76
2022/11/22 03:42:25;;;;;;;27.77;18.70;;;;;;;1.95;92.53;98441.69;5031873;28;20678;-76
2022/11/22 03:44:51;;;;;;;25.33;18.40;;;;;;;1.97;92.59;98446.81;5032188;28;20244;-76
2022/11/22 03:47:18;;;;;;;25.10;17.43;;;;;;;1.92;92.42;98440.88;5031920;28;20223;-75
2022/11/22 03:49:45;;;;;;;30.17;18.53;;;;;;;1.96;92.54;98448.56;5031851;28;20213;-75
2022/11/22 03:52:12;;;;;;;25.30;17.73;;;;;;;1.91;92.30;98442.63;5031462;28;20207;-75
2022/11/22 03:54:39;;;;;;;23.77;18.03;;;;;;;1.92;92.96;98435.75;5031833;28;20665;-75
2022/11/22 03:57:05;;;;;;;22.23;16.77;;;;;;;1.87;93.17;98440.13;5031978;28;20230;-76
2022/11/22 03:59:32;;;;;;;26.23;17.67;;;;;;;1.87;93.49;98425.53;5031850;28;20296;-76
2022/11/22 04:01:58;;;;;;;21.73;16.73;;;;;;;1.89;93.45;98420.38;5031424;28;20509;-75
2022/11/22 04:04:25;;;;;;;27.20;17.40;;;;;;;1.78;93.44;98402.53;5031692;28;20217;-76
2022/11/22 04:06:51;;;;;;;21.97;16.67;;;;;;;1.77;94.37;98403.41;5031550;28;20234;-76
2022/11/22 04:09:19;;;;;;;28.00;18.37;;;;;;;1.76;93.93;98396.56;5031898;28;20213;-76
2022/11/22 04:11:46;;;;;;;23.90;16.70;;;;;;;1.82;94.04;98387.91;5035359;28;20210;-76
2022/11/22 04:16:57;;;;;;;25.37;17.23;;;;;;;1.89;93.86;98395.50;5035769;28;20594;-76
2022/11/22 04:19:23;;;;;;;24.50;17.87;;;;;;;1.95;93.77;98394.53;5035551;28;20233;-76
2022/11/22 04:21:49;;;;;;;22.47;16.97;;;;;;;1.98;93.84;98403.06;5035382;28;20220;-76
2022/11/22 04:27:00;;;;;;;27.67;18.00;;;;;;;1.98;93.70;98407.34;5035526;28;20718;-75
2022/11/22 04:29:27;;;;;;;29.63;16.97;;;;;;;2.07;93.31;98408.91;5035482;28;20206;-76
2022/11/22 04:34:38;;;;;;;21.20;16.40;;;;;;;2.05;93.57;98431.25;5035206;28;20350;-76
2022/11/22 04:37:05;;;;;;;25.07;16.97;;;;;;;2.05;94.52;98418.41;5035187;28;20611;-76
2022/11/22 04:39:32;;;;;;;23.13;16.27;;;;;;;2.11;93.93;98420.84;5035176;28;20208;-76
2022/11/22 04:44:45;;;;;;;21.93;16.00;;;;;;;1.98;94.49;98425.34;5035145;28;20210;-76
2022/11/22 04:47:57;;;;;;;28.57;17.80;;;;;;;1.88;95.03;98413.53;5035010;28;20711;-76
2022/11/22 04:52:52;;;;;;;27.20;16.50;;;;;;;1.94;94.89;98396.28;5034617;28;20234;-76
2022/11/22 04:52:53;;;;;;;22.17;16.50;;;;;;;2.02;94.67;98398.69;5035035;28;20202;-76
2022/11/22 04:55:19;;;;;;;21.07;15.43;;;;;;;2.07;94.76;98404.63;5034942;28;20210;-76
2022/11/22 04:57:46;;;;;;;21.07;15.83;;;;;;;2.08;94.47;98406.31;5034804;28;20717;-76
2022/11/22 05:00:14;;;;;;;18.87;15.37;;;;;;;2.09;94.38;98409.75;5034722;28;20210;-76
2022/11/22 05:02:41;;;;;;;20.63;15.43;;;;;;;2.06;94.98;98405.50;5034715;28;20207;-74
2022/11/22 05:05:08;;;;;;;21.47;16.47;;;;;;;2.11;94.32;98408.00;5034874;28;20230;-75
2022/11/22 05:07:35;;;;;;;23.23;16.73;;;;;;;2.14;94.03;98415.63;5034885;28;20576;-75
2022/11/22 05:10:01;;;;;;;21.87;16.30;;;;;;;2.13;94.07;98421.69;5034499;28;20210;-74
2022/11/22 05:12:28;;;;;;;21.30;16.63;;;;;;;2.12;94.31;98419.97;5034714;28;20215;-75
2022/11/22 05:14:54;;;;;;;24.33;16.43;;;;;;;2.15;94.51;98423.34;5034695;28;20233;-75
2022/11/22 05:17:22;;;;;;;24.83;17.57;;;;;;;2.17;94.54;98416.44;5034488;28;20232;-75
2022/11/22 05:19:48;;;;;;;21.63;16.27;;;;;;;2.19;93.91;98424.97;5034542;28;20211;-75
2022/11/22 05:22:15;;;;;;;23.87;16.20;;;;;;;2.19;93.86;98421.56;5034143;28;20218;-75
2022/11/22 05:24:41;;;;;;;23.90;16.63;;;;;;;2.24;94.26;98424.91;5034524;28;20237;-75
2022/11/22 05:27:07;;;;;;;18.53;14.97;;;;;;;2.24;94.26;98437.78;5034299;28;20612;-75
2022/11/22 05:29:34;;;;;;;18.47;16.37;;;;;;;2.16;95.02;98429.31;5034397;28;20208;-75
2022/11/22 05:32:00;;;;;;;20.60;15.03;;;;;;;2.19;95.17;98406.13;5033928;28;20218;-75
2022/11/22 05:34:28;;;;;;;15.57;13.53;;;;;;;2.22;96.08;98385.50;5033941;28;20212;-75
2022/11/22 05:36:54;;;;;;;14.83;13.33;;;;;;;2.28;96.14;98380.22;5038471;22;20245;-77
2022/11/22 05:39:21;;;;;;;17.73;14.40;;;;;;;2.32;95.12;98392.16;5015988;28;20777;-78
2022/11/22 05:41:55;;;;;;;23.30;15.40;;;;;;;2.28;94.95;98397.38;5014953;28;20204;-78
2022/11/22 05:44:22;;;;;;;19.43;15.63;;;;;;;2.27;95.50;98393.97;5015620;28;20203;-78
2022/11/22 05:46:48;;;;;;;19.70;15.60;;;;;;;2.18;95.45;98384.69;5015668;28;20236;-77
2022/11/22 05:49:14;;;;;;;17.33;15.23;;;;;;;2.21;95.41;98388.94;5015975;28;20211;-78
2022/11/22 05:51:42;;;;;;;20.33;15.70;;;;;;;2.24;95.51;98388.00;5014990;28;20202;-77
2022/11/22 05:54:09;;;;;;;21.40;15.80;;;;;;;2.15;96.13;98386.47;5015455;28;20209;-78
2022/11/22 05:56:35;;;;;;;19.80;16.00;;;;;;;2.14;95.74;98388.19;5015403;28;20224;-78
2022/11/22 05:59:02;;;;;;;17.33;14.00;;;;;;;2.08;96.29;98384.88;5015347;28;20214;-76
2022/11/22 06:01:28;;;;;;;14.93;12.20;;;;;;;2.06;97.26;98364.34;5014386;28;20226;-77
2022/11/22 06:03:55;;;;;;;18.67;14.07;;;;;;;2.12;98.21;98346.22;5014407;28;20212;-77
2022/11/22 06:06:21;;;;;;;21.50;13.80;;;;;;;2.13;97.91;98339.31;5014855;28;20235;-78
2022/11/22 06:08:50;;;;;;;16.67;12.83;;;;;;;2.19;97.86;98327.19;5014413;28;20203;-76
2022/11/22 06:11:19;;;;;;;17.53;12.03;;;;;;;2.23;98.20;98327.97;5014178;28;20298;-78
2022/11/22 06:13:47;;;;;;;14.77;11.87;;;;;;;2.25;98.74;98317.66;5014349;28;20205;-78
2022/11/22 06:16:15;;;;;;;15.30;11.87;;;;;;;2.34;98.70;98305.44;5014534;28;20226;-78
2022/11/22 06:18:42;;;;;;;11.97;10.13;;;;;;;2.42;98.96;98307.88;5013904;28;20670;-76
2022/11/22 06:21:12;;;;;;;11.33;9.27;;;;;;;2.43;98.29;98319.84;5014022;28;20203;-75
2022/11/22 06:23:38;;;;;;;13.37;10.03;;;;;;;2.39;99.05;98313.91;5013867;28;20203;-78
2022/11/22 06:26:09;;;;;;;11.60;10.10;;;;;;;2.51;98.89;98322.28;5013410;28;20232;-78
2022/11/22 06:28:37;;;;;;;10.53;9.50;;;;;;;2.52;98.99;98324.81;5013883;28;20214;-78
2022/11/22 06:31:05;;;;;;;10.80;9.70;;;;;;;2.56;99.36;98325.63;5013946;28;20226;-76
2022/11/22 06:33:32;;;;;;;9.03;8.23;;;;;;;2.61;98.93;98328.94;5012984;28;20291;-77
2022/11/22 06:36:01;;;;;;;9.93;8.33;;;;;;;2.65;98.90;98334.88;5013387;28;20231;-77
2022/11/22 06:38:28;;;;;;;11.50;8.87;;;;;;;2.64;98.56;98346.06;5014188;28;20203;-78
2022/11/22 06:40:59;;;;;;;8.57;7.77;;;;;;;2.67;99.15;98344.25;5013521;28;20215;-77
2022/11/22 06:43:28;;;;;;;10.57;9.07;;;;;;;2.67;98.43;98353.72;5013636;28;20206;-77
2022/11/22 06:45:56;;;;;;;10.83;9.10;;;;;;;2.68;98.64;98348.53;5012843;28;20231;-77
2022/11/22 06:48:22;;;;;;;10.23;9.23;;;;;;;2.71;98.78;98356.19;5013575;28;20204;-77
2022/11/22 06:50:49;;;;;;;10.37;9.20;;;;;;;2.77;98.89;98361.22;5013538;28;20203;-77
2022/11/22 06:53:15;;;;;;;10.60;9.50;;;;;;;2.85;98.33;98362.78;5013463;28;20214;-78
2022/11/22 06:55:42;;;;;;;10.43;9.47;;;;;;;2.81;98.26;98367.13;5013142;28;20280;-75
2022/11/22 06:58:08;;;;;;;10.13;9.10;;;;;;;2.75;98.49;98377.56;5016935;28;20207;-78
2022/11/22 07:00:36;;;;;;;10.03;9.03;;;;;;;2.83;97.92;98377.41;5012706;28;20195;-77
2022/11/22 07:03:03;;;;;;;11.80;9.43;;;;;;;2.76;98.70;98379.28;5012626;28;20616;-77
2022/11/22 07:05:29;;;;;;;10.07;9.10;;;;;;;2.85;98.85;98367.94;5012730;28;20223;-78
2022/11/22 07:07:56;;;;;;;9.50;8.63;;;;;;;2.92;98.61;98377.25;5012731;28;20227;-77
2022/11/22 07:10:23;;;;;;;9.83;8.83;;;;;;;2.94;98.71;98380.63;5015371;28;20630;-78
2022/11/22 07:12:49;;;;;;;9.73;8.73;;;;;;;2.99;98.12;98383.94;5022269;28;20195;-77
2022/11/22 07:15:15;;;;;;;9.37;8.47;;;;;;;3.03;98.41;98398.44;5022510;28;20198;-76
2022/11/22 07:17:43;;;;;;;9.27;7.57;;;;;;;3.01;97.80;98399.38;5023941;28;20222;-78
2022/11/22 07:20:10;;;;;;;10.85;9.85;;;;;;;3.13;97.97;98415.44;5023105;28;20464;-76
2022/11/22 07:22:37;;;;;;;8.63;7.93;;;;;;;3.08;97.71;98424.16;5022931;28;20581;-77
2022/11/22 07:25:03;;;;;;;10.03;8.63;;;;;;;3.24;97.81;98416.94;5021377;28;20210;-77
2022/11/22 07:27:30;;;;;;;12.93;8.43;;;;;;;3.52;100.00;98396.50;5022379;28;20305;-77
2022/11/22 07:29:56;;;;;;;9.20;8.40;;;;;;;3.66;100.00;98363.50;5012631;28;20218;-78
2022/11/22 07:32:23;;;;;;;8.97;8.10;;;;;;;3.87;100.00;98336.31;5013469;28;20211;-78
2022/11/22 07:34:50;;;;;;;8.90;7.70;;;;;;;4.00;100.00;98311.00;5014665;28;20257;-77
2022/11/22 07:37:17;;;;;;;8.27;7.30;;;;;;;3.99;100.00;98306.75;5013484;28;20235;-78
2022/11/22 07:39:43;;;;;;;8.27;7.57;;;;;;;3.91;100.00;98313.84;5013883;28;20218;-77
2022/11/22 07:42:10;;;;;;;7.83;7.10;;;;;;;3.84;100.00;98346.69;5012677;28;20716;-77
2022/11/22 07:44:36;;;;;;;8.00;7.30;;;;;;;3.83;100.00;98367.41;5013319;28;20207;-77
2022/11/22 07:47:03;;;;;;;14.03;12.63;;;;;;;3.78;99.67;98391.56;5013190;28;20236;-78
2022/11/22 07:49:29;;;;;;;20.87;18.87;;;;;;;3.78;98.71;98407.03;5013083;28;20213;-78
2022/11/22 07:51:58;;;;;;;10.67;9.63;;;;;;;3.76;98.12;98426.88;5017131;28;20207;-77
2022/11/22 07:54:24;;;;;;;9.13;8.23;;;;;;;3.83;97.66;98447.41;5033326;28;20210;-77
2022/11/22 07:56:51;;;;;;;7.97;7.27;;;;;;;3.83;97.11;98458.56;5034564;28;20225;-77
2022/11/22 07:59:17;;;;;;;9.40;6.80;;;;;;;3.84;96.44;98480.06;5035479;28;20211;-77
2022/11/22 08:01:44;;;;;;;7.90;7.20;;;;;;;3.82;96.30;98492.16;5036380;28;20206;-78
2022/11/22 08:04:10;;;;;;;7.10;6.43;;;;;;;3.65;96.46;98497.66;5036966;28;20279;-77
2022/11/22 08:06:36;;;;;;;7.30;6.70;;;;;;;3.66;96.65;98492.50;5036994;28;20230;-78
2022/11/22 08:09:04;;;;;;;7.90;7.13;;;;;;;3.58;96.54;98504.72;5038448;28;20214;-78
2022/11/22 08:11:31;;;;;;;7.33;6.73;;;;;;;3.60;96.67;98502.09;5035237;28;20212;-77
2022/11/22 08:13:57;;;;;;;7.40;6.80;;;;;;;3.59;96.88;98498.69;5032418;28;20206;-78
2022/11/22 08:16:24;;;;;;;7.43;6.73;;;;;;;3.68;96.94;98500.19;5032457;28;20277;-78
2022/11/22 08:18:50;;;;;;;7.90;7.20;;;;;;;3.69;96.84;98502.75;5032260;28;20207;-77
2022/11/22 08:21:18;;;;;;;8.37;7.63;;;;;;;3.76;96.73;98508.63;5032317;28;20636;-77
2022/11/22 08:23:46;;;;;;;7.93;7.13;;;;;;;3.77;96.63;98521.50;5032383;28;20684;-77
2022/11/22 08:26:16;;;;;;;8.67;7.33;;;;;;;3.82;96.69;98525.69;5032231;28;20239;-77
2022/11/22 08:28:43;;;;;;;8.30;7.50;;;;;;;3.80;96.32;98532.63;5032588;28;20207;-77
2022/11/22 08:31:12;;;;;;;10.40;8.13;;;;;;;3.83;95.99;98527.41;5031393;28;20218;-78
2022/11/22 08:33:39;;;;;;;11.47;7.80;;;;;;;3.92;96.25;98527.19;5033149;28;20204;-78
2022/11/22 08:36:06;;;;;;;10.30;8.40;;;;;;;3.95;96.05;98533.13;5032821;28;20228;-78
2022/11/22 08:38:33;;;;;;;8.37;7.57;;;;;;;3.98;96.33;98539.94;5034053;28;20213;-77
2022/11/22 08:40:59;;;;;;;8.50;7.67;;;;;;;4.02;96.15;98541.56;5033173;28;20214;-78
2022/11/22 08:43:27;;;;;;;8.67;7.87;;;;;;;4.14;95.94;98535.25;5033792;28;20210;-78
2022/11/22 08:45:56;;;;;;;7.77;7.07;;;;;;;4.20;95.67;98547.19;5033680;28;20233;-77
2022/11/22 08:48:24;;;;;;;10.87;9.97;;;;;;;4.24;96.01;98548.81;5034118;28;20203;-77
2022/11/22 08:50:51;;;;;;;9.27;8.20;;;;;;;4.25;95.75;98553.94;5033336;28;20223;-77
2022/11/22 08:53:18;;;;;;;8.33;7.53;;;;;;;4.27;95.80;98557.34;5034029;28;20209;-78
2022/11/22 08:55:44;;;;;;;8.00;7.30;;;;;;;4.31;95.67;98563.28;5034257;28;20221;-77
2022/11/22 08:58:11;;;;;;;8.67;6.97;;;;;;;4.34;95.22;98573.53;5037835;28;20220;-77
2022/11/22 09:00:39;;;;;;;7.13;6.53;;;;;;;4.32;95.20;98570.13;5037481;28;20245;-78
2022/11/22 09:03:05;;;;;;;6.90;6.20;;;;;;;4.33;95.92;98577.00;5036936;28;20214;-78
2022/11/22 09:05:31;;;;;;;7.10;6.50;;;;;;;4.31;96.24;98563.28;5037053;28;20211;-78
2022/11/22 09:07:58;;;;;;;6.77;6.17;;;;;;;4.30;96.43;98559.88;5036225;28;20222;-78
2022/11/22 09:10:25;;;;;;;5.70;5.27;;;;;;;4.28;96.92;98559.06;5025388;28;20230;-79
2022/11/22 09:12:51;;;;;;;6.50;5.90;;;;;;;4.32;97.56;98536.56;5028111;28;20209;-78
2022/11/22 09:15:18;;;;;;;9.13;7.57;;;;;;;4.28;96.91;98538.38;5032744;28;20687;-78
2022/11/22 09:17:46;;;;;;;7.57;6.70;;;;;;;4.26;97.57;98544.47;5041918;28;20230;-78
2022/11/22 09:20:12;;;;;;;8.43;7.63;;;;;;;4.21;96.55;98560.06;5039105;28;20207;-79
2022/11/22 09:22:39;;;;;;;8.03;7.20;;;;;;;4.30;96.17;98572.78;5040215;28;20217;-78
2022/11/22 09:25:06;;;;;;;7.07;6.47;;;;;;;4.43;96.69;98569.91;5038942;28;20209;-79
2022/11/22 09:27:33;;;;;;;7.83;6.90;;;;;;;4.53;96.35;98574.78;5038873;28;20721;-79
2022/11/22 09:30:00;;;;;;;7.83;7.13;;;;;;;4.62;96.43;98583.19;5039130;28;20215;-78
2022/11/22 09:32:27;;;;;;;9.67;6.83;;;;;;;4.68;96.81;98578.75;5037957;28;20253;-79
2022/11/22 09:34:54;;;;;;;7.50;6.80;;;;;;;4.76;96.92;98565.63;5037353;28;20216;-78
2022/11/22 09:37:21;;;;;;;8.57;7.77;;;;;;;4.83;97.56;98572.31;5038457;28;20238;-78
2022/11/22 09:39:47;;;;;;;6.87;6.27;;;;;;;4.90;97.23;98566.09;5038607;28;20216;-77
2022/11/22 09:42:48;;;;;;;6.57;6.07;;;;;;;4.95;97.78;98564.22;5036822;28;20590;-78
2022/11/22 09:45:38;;;;;;;6.87;6.27;;;;;;;4.99;97.13;98559.84;5036370;28;20212;-77
2022/11/22 09:48:17;;;;;;;7.17;6.47;;;;;;;5.08;97.19;98561.34;5036214;28;20239;-79
2022/11/22 09:50:54;;;;;;;7.00;6.40;;;;;;;5.12;97.31;98566.38;5035829;28;20214;-79
2022/11/22 09:53:25;;;;;;;7.40;6.80;;;;;;;5.16;96.94;98560.22;5036662;28;20241;-78
2022/11/22 09:55:55;;;;;;;7.63;6.93;;;;;;;5.27;96.60;98585.81;5037813;28;20214;-78
2022/11/22 09:58:29;;;;;;;7.30;6.60;;;;;;;5.40;97.41;98583.72;5038754;28;20208;-77
2022/11/22 10:01:01;;;;;;;9.10;7.30;;;;;;;5.70;98.76;98543.16;5036387;28;20209;-78
2022/11/22 10:03:35;;;;;;;7.67;6.87;;;;;;;5.87;99.61;98519.38;5036008;28;20235;-79
2022/11/22 10:06:12;;;;;;;10.60;7.00;;;;;;;6.10;99.74;98507.47;5028663;28;20603;-79
2022/11/22 10:08:44;;;;;;;7.30;6.60;;;;;;;6.33;100.00;98483.41;5022148;28;20210;-78
2022/11/22 10:11:18;;;;;;;6.43;5.90;;;;;;;6.35;100.00;98494.56;5024112;28;20199;-79
2022/11/22 10:13:51;;;;;;;6.93;6.13;;;;;;;6.42;99.60;98514.22;5016449;28;20225;-79
2022/11/22 10:16:22;;;;;;;7.10;5.80;;;;;;;6.45;97.88;98532.25;5016778;28;20238;-78
2022/11/22 10:18:56;;;;;;;5.27;4.87;;;;;;;6.43;96.53;98561.69;5016455;28;20214;-78
2022/11/22 10:21:25;;;;;;;7.40;5.27;;;;;;;6.44;95.14;98594.47;5016034;28;20214;-79
2022/11/22 10:23:52;;;;;;;6.43;5.30;;;;;;;6.49;95.15;98609.00;5017017;28;20721;-78
2022/11/22 10:26:24;;;;;;;6.87;6.27;;;;;;;6.49;94.91;98623.69;5016515;28;20237;-79
2022/11/22 10:29:09;;;;;;;5.67;5.07;;;;;;;6.61;95.55;98612.94;5017106;28;20211;-79
2022/11/22 10:31:44;;;;;;;5.70;5.10;;;;;;;6.59;94.54;98622.50;5016608;28;20232;-79
2022/11/22 10:34:20;;;;;;;5.33;4.80;;;;;;;6.68;94.41;98631.72;5017223;28;20206;-79
2022/11/22 10:36:55;;;;;;;5.90;4.80;;;;;;;6.68;94.01;98658.53;5016969;28;20237;-80
2022/11/22 10:39:37;;;;;;;4.73;4.33;;;;;;;6.66;91.80;98681.06;5016500;28;20285;-79
2022/11/22 10:42:22;;;;;;;6.27;4.30;;;;;;;6.30;88.85;98737.44;5016752;28;20232;-79
2022/11/22 10:44:54;;;;;;;5.17;3.93;;;;;;;6.44;89.38;98796.63;5016945;28;20218;-79
2022/11/22 10:47:34;;;;;;;4.43;4.00;;;;;;;6.56;91.00;98752.19;5016890;28;20237;-79
2022/11/22 10:50:08;;;;;;;4.50;4.00;;;;;;;6.61;91.15;98757.28;5017520;28;20210;-79
2022/11/22 10:52:46;;;;;;;6.10;4.20;;;;;;;6.72;92.13;98730.13;5017220;28;20216;-79
2022/11/22 10:55:23;;;;;;;5.07;4.20;;;;;;;6.57;88.25;98792.81;5017161;28;20210;-79
2022/11/22 10:58:01;;;;;;;10.40;5.83;;;;;;;6.64;88.79;98825.44;5015700;28;20754;-78
2022/11/22 11:00:31;;;;;;;9.30;5.70;;;;;;;6.79;89.17;98790.41;5016203;28;20218;-78
2022/11/22 11:03:12;;;;;;;6.77;3.87;;;;;;;7.00;90.28;98756.91;5016956;28;20221;-77
2022/11/22 11:05:46;;;;;;;6.03;3.77;;;;;;;7.03;88.29;98775.84;5015384;28;20210;-78
2022/11/22 11:08:16;;;;;;;4.90;4.40;;;;;;;7.08;88.26;98794.72;5016192;28;20226;-77
2022/11/22 11:10:45;;;;;;;5.40;3.90;;;;;;;7.08;87.10;98812.03;5016541;28;20294;-79
2022/11/22 11:13:20;;;;;;;4.97;3.30;;;;;;;7.19;88.64;98803.91;5016919;28;20214;-79
2022/11/22 11:15:50;;;;;;;4.07;3.33;;;;;;;7.31;88.68;98786.22;5017028;28;20210;-78
2022/11/22 11:18:21;;;;;;;4.47;3.90;;;;;;;7.31;86.99;98822.56;5016522;28;20214;-78
2022/11/22 11:20:47;;;;;;;9.67;4.63;;;;;;;7.34;87.29;98837.16;5016539;28;20211;-79
2022/11/22 11:23:15;;;;;;;5.77;4.40;;;;;;;7.29;86.83;98841.63;5020536;28;20202;-78
2022/11/22 11:25:43;;;;;;;4.87;4.00;;;;;;;7.38;88.15;98823.19;5024783;28;20197;-79
2022/11/22 11:28:17;;;;;;;5.83;4.03;;;;;;;7.36;87.13;98840.56;5022908;28;20227;-77
2022/11/22 11:30:46;;;;;;;4.57;3.83;;;;;;;7.39;86.44;98866.41;5013208;28;20210;-78
2022/11/22 11:33:19;;;;;;;3.87;3.37;;;;;;;7.33;86.46;98858.81;5012754;28;20712;-78
2022/11/22 11:35:47;;;;;;;4.53;3.30;;;;;;;7.20;83.73;98922.38;5013584;28;20206;-78
2022/11/22 11:38:29;;;;;;;4.97;3.57;;;;;;;7.35;84.72;98937.47;5014311;28;20198;-78
2022/11/22 11:40:55;;;;;;;6.27;3.10;;;;;;;7.49;85.47;98914.56;5013152;28;20210;-78
2022/11/22 11:43:23;;;;;;;5.60;3.97;;;;;;;7.42;84.25;98931.22;5013626;28;20202;-78
2022/11/22 11:45:50;;;;;;;5.07;4.00;;;;;;;7.59;86.04;98893.50;5013031;28;20293;-78
2022/11/22 11:48:27;;;;;;;8.60;3.30;;;;;;;7.50;83.08;98942.22;5013757;28;20230;-79